Warm Springs, Virginia
Current Conditions -  °F | °C
As of 1:55 AM on Thursday 27 Nov 2014 (Local Time) from KLWB Reporting Station
Moderate Fog Moderate Fog  
Wind Chill: 33°   Ceiling: 200
Heat Index: 33°   Visibility: 0.25mi
Dew Point: 32°   Wind: 0mph
Humidity: 95%   Direction: NA
Pressure: 29.96"   Gusts: NA
Location:  38.05°N, 79.79°W
Report Text: KLWB 270655Z AUTO 00000KT 1/4SM FG OVC002 01/00 A2996 RMK AO2 T00070000
Loading
Personal Weather Stations






























Interactive Weather Map New forecast layout! Learn more

10-Day Weather Forecast

Advertisements
Track Severe Weather on mobile